createdAt,value
2022-11-23T00:00:44.848Z,41.15
2022-11-23T00:01:44.920Z,41.08
2022-11-23T00:02:44.841Z,41.20
2022-11-23T00:03:44.840Z,43.62
2022-11-23T00:04:44.814Z,41.19
2022-11-23T00:05:44.835Z,41.20
2022-11-23T00:06:44.907Z,44.76
2022-11-23T00:07:44.829Z,47.42
2022-11-23T00:08:44.783Z,48.19
2022-11-23T00:09:44.781Z,48.17
2022-11-23T00:10:44.796Z,48.47
2022-11-23T00:11:44.792Z,41.47
2022-11-23T00:12:44.765Z,43.94
2022-11-23T00:13:44.757Z,43.26
2022-11-23T00:14:44.760Z,47.94
2022-11-23T00:15:44.735Z,46.46
2022-11-23T00:16:44.771Z,43.37
2022-11-23T00:17:44.723Z,45.12
2022-11-23T00:18:44.711Z,45.53
2022-11-23T00:19:44.701Z,41.50
2022-11-23T00:20:44.704Z,41.99
2022-11-23T00:21:44.719Z,45.12
2022-11-23T00:22:44.682Z,49.08
2022-11-23T00:23:44.684Z,43.25
2022-11-23T00:24:44.722Z,44.91
2022-11-23T00:26:17.384Z,49.98
2022-11-23T00:26:44.685Z,40.86
2022-11-23T00:27:44.643Z,43.12
2022-11-23T00:28:44.634Z,40.77
2022-11-23T00:29:44.625Z,40.71
2022-11-23T00:30:44.625Z,46.51
2022-11-23T00:31:44.634Z,44.01
2022-11-23T00:32:44.624Z,40.59
2022-11-23T00:33:44.581Z,44.09
2022-11-23T00:34:45.592Z,48.08
2022-11-23T00:35:44.589Z,44.32
2022-11-23T00:36:44.611Z,41.17
2022-11-23T00:37:44.574Z,51.12
2022-11-23T00:38:44.565Z,46.44
2022-11-23T00:39:44.560Z,45.80
2022-11-23T00:40:44.546Z,40.87
2022-11-23T00:41:44.573Z,40.49
2022-11-23T00:42:44.538Z,49.35
2022-11-23T00:43:44.538Z,44.21
2022-11-23T00:44:44.522Z,49.86
2022-11-23T00:45:44.508Z,47.49
2022-11-23T00:46:44.547Z,41.75
2022-11-23T00:47:44.493Z,45.23
2022-11-23T00:48:44.492Z,44.03
2022-11-23T00:49:44.490Z,43.56
2022-11-23T00:50:44.476Z,44.27
2022-11-23T00:51:44.466Z,41.85
2022-11-23T00:52:44.518Z,42.97
2022-11-23T00:53:44.457Z,45.43
2022-11-23T00:54:44.435Z,41.17
2022-11-23T00:55:45.439Z,40.58
2022-11-23T00:56:44.432Z,44.69
2022-11-23T00:57:44.445Z,46.06
2022-11-23T00:58:44.425Z,55.66
2022-11-23T00:59:44.405Z,42.25
2022-11-23T01:00:44.397Z,47.63
2022-11-23T01:01:44.449Z,48.74
2022-11-23T01:02:44.416Z,41.01
2022-11-23T01:03:44.379Z,47.81
2022-11-23T01:04:44.366Z,51.47
2022-11-23T01:05:44.363Z,52.48
2022-11-23T01:06:44.362Z,44.54
2022-11-23T01:07:44.460Z,47.33
2022-11-23T01:08:44.339Z,52.67
2022-11-23T01:09:44.336Z,41.11
2022-11-23T01:10:44.323Z,50.78
2022-11-23T01:11:44.318Z,61.35
2022-11-23T01:12:44.336Z,46.10
2022-11-23T01:13:44.301Z,46.52
2022-11-23T01:14:44.297Z,53.17
2022-11-23T01:15:44.282Z,46.62
2022-11-23T01:16:44.315Z,45.74
2022-11-23T01:17:44.296Z,41.41
2022-11-23T01:18:44.272Z,43.89
2022-11-23T01:19:44.259Z,40.62
2022-11-23T01:20:44.243Z,47.76
2022-11-23T01:21:44.238Z,52.14
2022-11-23T01:22:44.297Z,43.83
2022-11-23T01:23:44.223Z,53.74
2022-11-23T01:24:44.218Z,43.06
2022-11-23T01:25:44.207Z,40.61
2022-11-23T01:26:44.206Z,45.98
2022-11-23T01:27:44.215Z,49.80
2022-11-23T01:28:44.184Z,44.36
2022-11-23T01:29:44.170Z,44.88
2022-11-23T01:30:44.165Z,40.74
2022-11-23T01:31:46.800Z,44.35
2022-11-23T01:32:45.179Z,42.84
2022-11-23T01:33:44.150Z,46.13
2022-11-23T01:34:45.140Z,58.53
2022-11-23T01:35:44.140Z,45.38
2022-11-23T01:36:44.151Z,41.26
2022-11-23T01:37:44.141Z,47.37
2022-11-23T01:38:44.146Z,43.26
2022-11-23T01:39:44.097Z,43.42
2022-11-23T01:40:44.092Z,40.74
2022-11-23T01:41:44.093Z,44.16
2022-11-23T01:42:44.099Z,40.58
2022-11-23T01:43:44.069Z,56.52
2022-11-23T01:44:44.048Z,47.88
2022-11-23T01:45:44.045Z,41.18
2022-11-23T01:46:45.043Z,45.15
2022-11-23T01:47:44.069Z,59.37
2022-11-23T01:48:44.051Z,44.82
2022-11-23T01:49:44.025Z,40.63
2022-11-23T01:50:44.021Z,40.62
2022-11-23T01:51:44.022Z,44.47
2022-11-23T01:52:44.029Z,45.37
2022-11-23T01:53:43.992Z,43.06
2022-11-23T01:54:44.021Z,42.94
2022-11-23T01:55:43.977Z,40.65
2022-11-23T01:56:43.962Z,40.55
2022-11-23T01:57:44.006Z,40.68
2022-11-23T01:58:43.978Z,43.69
2022-11-23T01:59:43.944Z,46.20
2022-11-23T02:00:44.014Z,40.54
2022-11-23T02:01:43.932Z,44.93
2022-11-23T02:02:43.920Z,41.17
2022-11-23T02:03:43.933Z,40.44
2022-11-23T02:04:43.903Z,40.50
2022-11-23T02:05:43.894Z,45.18
2022-11-23T02:06:43.891Z,40.90
2022-11-23T02:07:43.937Z,40.59
2022-11-23T02:08:43.908Z,46.33
2022-11-23T02:09:43.860Z,44.37
2022-11-23T02:10:43.854Z,46.46
2022-11-23T02:11:43.850Z,48.48
2022-11-23T02:12:43.842Z,46.16
2022-11-23T02:13:43.871Z,47.81
2022-11-23T02:14:43.834Z,44.96
2022-11-23T02:15:43.818Z,50.34
2022-11-23T02:16:43.819Z,45.92
2022-11-23T02:17:43.803Z,42.49
2022-11-23T02:18:43.820Z,47.82
2022-11-23T02:19:43.793Z,45.31
2022-11-23T02:20:43.790Z,46.39
2022-11-23T02:21:43.780Z,61.32
2022-11-23T02:22:43.783Z,43.25
2022-11-23T02:23:43.786Z,49.65
2022-11-23T02:24:43.758Z,45.58
2022-11-23T02:25:43.750Z,43.94
2022-11-23T02:26:43.740Z,42.79
2022-11-23T02:27:46.997Z,40.87
2022-11-23T02:28:44.759Z,48.59
2022-11-23T02:29:43.720Z,40.62
2022-11-23T02:30:43.714Z,45.41
2022-11-23T02:31:43.705Z,42.45
2022-11-23T02:32:43.695Z,42.86
2022-11-23T02:33:43.719Z,44.67
2022-11-23T02:34:43.682Z,48.28
2022-11-23T02:35:43.673Z,42.88
2022-11-23T02:36:43.662Z,43.63
2022-11-23T02:37:43.658Z,43.98
2022-11-23T02:38:43.669Z,48.35
2022-11-23T02:39:43.639Z,45.02
2022-11-23T02:40:43.633Z,45.67
2022-11-23T02:41:43.627Z,44.80
2022-11-23T02:42:43.622Z,44.89
2022-11-23T02:43:43.632Z,48.63
2022-11-23T02:44:43.600Z,46.11
2022-11-23T02:45:43.601Z,51.40
2022-11-23T02:46:43.627Z,47.08
2022-11-23T02:47:43.606Z,47.99
2022-11-23T02:48:43.604Z,44.82
2022-11-23T02:49:43.580Z,51.17
2022-11-23T02:50:43.566Z,46.69
2022-11-23T02:51:43.554Z,44.12
2022-11-23T02:52:43.546Z,43.86
2022-11-23T02:53:43.569Z,45.81
2022-11-23T02:54:43.529Z,43.30
2022-11-23T02:55:43.521Z,41.92
2022-11-23T02:56:43.509Z,59.47
2022-11-23T02:57:43.503Z,44.44
2022-11-23T02:58:43.492Z,45.23
2022-11-23T02:59:43.516Z,48.85
2022-11-23T03:00:43.533Z,50.66
2022-11-23T03:01:43.472Z,53.59
2022-11-23T03:02:43.464Z,42.55
2022-11-23T03:03:43.465Z,43.62
2022-11-23T03:04:43.484Z,44.31
2022-11-23T03:05:43.440Z,47.51
2022-11-23T03:06:43.436Z,52.11
2022-11-23T03:07:43.478Z,45.89
2022-11-23T03:08:43.422Z,51.53
2022-11-23T03:09:43.449Z,43.78
2022-11-23T03:10:43.408Z,43.85
2022-11-23T03:11:43.402Z,47.52
2022-11-23T03:12:43.386Z,50.74
2022-11-23T03:13:43.391Z,44.14
2022-11-23T03:14:43.402Z,50.26
2022-11-23T03:15:43.440Z,40.66
2022-11-23T03:16:43.359Z,44.27
2022-11-23T03:17:43.350Z,49.07
2022-11-23T03:18:43.342Z,43.77
2022-11-23T03:19:43.362Z,43.85
2022-11-23T03:20:43.339Z,43.90
2022-11-23T03:21:43.322Z,43.61
2022-11-23T03:22:43.324Z,60.34
2022-11-23T03:23:43.301Z,50.66
2022-11-23T03:24:43.321Z,43.88
2022-11-23T03:25:43.294Z,45.25
2022-11-23T03:26:43.284Z,52.64
2022-11-23T03:27:43.282Z,50.17
2022-11-23T03:28:43.269Z,47.46
2022-11-23T03:29:43.278Z,51.20
2022-11-23T03:30:44.258Z,48.87
2022-11-23T03:31:43.256Z,46.77
2022-11-23T03:32:43.242Z,47.23
2022-11-23T03:33:43.240Z,44.44
2022-11-23T03:34:43.252Z,52.11
2022-11-23T03:35:43.221Z,47.45
2022-11-23T03:36:43.209Z,48.34
2022-11-23T03:37:43.208Z,45.19
2022-11-23T03:38:43.192Z,47.41
2022-11-23T03:39:47.385Z,50.37
2022-11-23T03:40:44.180Z,44.90
2022-11-23T03:41:43.172Z,48.62
2022-11-23T03:42:43.159Z,49.81
2022-11-23T03:43:43.163Z,45.62
2022-11-23T03:44:43.173Z,48.35
2022-11-23T03:45:43.139Z,49.52
2022-11-23T03:46:43.141Z,48.40
2022-11-23T03:47:43.122Z,43.28
2022-11-23T03:48:43.121Z,44.55
2022-11-23T03:49:43.136Z,48.60
2022-11-23T03:50:43.110Z,49.57
2022-11-23T03:51:43.093Z,45.19
2022-11-23T03:52:43.088Z,51.05
2022-11-23T03:53:43.078Z,44.67
2022-11-23T03:54:43.152Z,48.03
2022-11-23T03:55:43.071Z,45.84
2022-11-23T03:56:43.056Z,52.47
2022-11-23T03:57:43.042Z,49.99
2022-11-23T03:58:43.036Z,48.19
2022-11-23T03:59:43.028Z,49.22
2022-11-23T04:00:43.107Z,46.58
2022-11-23T04:01:43.013Z,59.55
2022-11-23T04:02:43.006Z,47.58
2022-11-23T04:03:43.006Z,47.02
2022-11-23T04:04:44.037Z,51.93
2022-11-23T04:05:42.991Z,58.73
2022-11-23T04:06:42.973Z,51.31
2022-11-23T04:07:43.038Z,48.93
2022-11-23T04:08:42.964Z,49.43
2022-11-23T04:09:42.971Z,50.09
2022-11-23T04:10:42.967Z,48.76
2022-11-23T04:11:42.937Z,49.82
2022-11-23T04:12:42.927Z,52.57
2022-11-23T04:13:42.921Z,48.28
2022-11-23T04:14:42.914Z,57.07
2022-11-23T04:15:42.936Z,49.02
2022-11-23T04:16:42.898Z,54.83
2022-11-23T04:17:42.890Z,60.12
2022-11-23T04:18:42.881Z,59.74
2022-11-23T04:19:42.885Z,58.29
2022-11-23T04:20:42.912Z,59.68
2022-11-23T04:21:42.854Z,57.78
2022-11-23T04:22:42.861Z,63.09
2022-11-23T04:23:42.857Z,58.95
2022-11-23T04:24:42.841Z,58.58
2022-11-23T04:25:42.864Z,51.08
2022-11-23T04:26:42.827Z,51.45
2022-11-23T04:27:42.814Z,50.96
2022-11-23T04:28:42.805Z,55.71
2022-11-23T04:29:42.810Z,48.72
2022-11-23T04:30:42.820Z,54.65
2022-11-23T04:31:42.784Z,55.71
2022-11-23T04:32:42.776Z,51.25
2022-11-23T04:33:42.770Z,56.43
2022-11-23T04:34:42.757Z,59.68
2022-11-23T04:35:42.783Z,53.38
2022-11-23T04:36:42.749Z,55.34
2022-11-23T04:37:42.728Z,61.52
2022-11-23T04:38:42.730Z,54.98
2022-11-23T04:39:42.727Z,60.02
2022-11-23T04:40:42.748Z,50.12
2022-11-23T04:41:42.709Z,54.21
2022-11-23T04:42:42.701Z,49.84
2022-11-23T04:43:42.689Z,58.59
2022-11-23T04:44:42.762Z,53.94
2022-11-23T04:45:42.703Z,50.23
2022-11-23T04:46:42.677Z,45.38
2022-11-23T04:47:42.669Z,56.42
2022-11-23T04:48:42.649Z,51.63
2022-11-23T04:49:42.659Z,55.08
2022-11-23T04:50:45.720Z,52.14
2022-11-23T04:51:42.630Z,56.45
2022-11-23T04:52:42.622Z,51.68
2022-11-23T04:53:42.611Z,51.79
2022-11-23T04:54:42.605Z,52.30
2022-11-23T04:55:42.621Z,50.35
2022-11-23T04:56:42.611Z,51.66
2022-11-23T04:57:42.591Z,54.46
2022-11-23T04:58:42.575Z,50.25
2022-11-23T04:59:42.568Z,50.87
2022-11-23T05:00:42.631Z,51.64
2022-11-23T05:01:42.558Z,53.10
2022-11-23T05:02:42.540Z,51.16
2022-11-23T05:03:42.536Z,50.55
2022-11-23T05:04:42.522Z,49.42
2022-11-23T05:05:42.541Z,50.92
2022-11-23T05:06:42.528Z,54.26
2022-11-23T05:07:42.536Z,50.50
2022-11-23T05:08:42.494Z,61.39
2022-11-23T05:09:42.498Z,54.24
2022-11-23T05:10:42.510Z,53.90
2022-11-23T05:11:42.474Z,55.81
2022-11-23T05:12:42.465Z,55.71
2022-11-23T05:13:42.461Z,52.88
2022-11-23T05:14:42.448Z,57.73
2022-11-23T05:15:42.495Z,52.85
2022-11-23T05:16:42.438Z,54.92
2022-11-23T05:17:42.424Z,52.67
2022-11-23T05:18:42.416Z,52.96
2022-11-23T05:19:42.414Z,54.22
2022-11-23T05:20:42.413Z,56.90
2022-11-23T05:21:42.422Z,54.11
2022-11-23T05:22:42.417Z,51.00
2022-11-23T05:23:42.407Z,57.00
2022-11-23T05:24:42.386Z,55.74
2022-11-23T05:25:42.369Z,56.60
2022-11-23T05:26:42.403Z,58.45
2022-11-23T05:27:42.361Z,58.57
2022-11-23T05:28:42.427Z,56.97
2022-11-23T05:29:42.333Z,51.65
2022-11-23T05:30:42.335Z,53.91
2022-11-23T05:31:42.351Z,52.89
2022-11-23T05:32:42.323Z,57.28
2022-11-23T05:33:42.343Z,56.88
2022-11-23T05:34:42.300Z,57.05
2022-11-23T05:35:42.294Z,56.53
2022-11-23T05:36:42.620Z,59.18
2022-11-23T05:37:43.278Z,60.62
2022-11-23T05:38:42.274Z,54.21
2022-11-23T05:39:42.260Z,57.97
2022-11-23T05:40:42.252Z,56.73
2022-11-23T05:41:42.274Z,58.34
2022-11-23T05:42:42.237Z,57.75
2022-11-23T05:43:42.267Z,55.25
2022-11-23T05:44:42.221Z,56.73
2022-11-23T05:45:42.211Z,53.79
2022-11-23T05:46:42.231Z,57.14
2022-11-23T05:47:42.202Z,56.67
2022-11-23T05:48:42.207Z,59.18
2022-11-23T05:49:42.196Z,57.56
2022-11-23T05:50:42.188Z,55.78
2022-11-23T05:51:42.227Z,56.61
2022-11-23T05:52:42.159Z,55.40
2022-11-23T05:53:42.151Z,55.16
2022-11-23T05:54:42.147Z,58.40
2022-11-23T05:55:42.136Z,59.79
2022-11-23T05:56:42.160Z,56.00
2022-11-23T05:57:42.117Z,56.72
2022-11-23T05:58:42.110Z,60.95
2022-11-23T05:59:42.105Z,59.56
2022-11-23T06:00:42.097Z,54.76
2022-11-23T06:01:42.116Z,56.69
2022-11-23T06:02:42.075Z,57.06
2022-11-23T06:03:42.120Z,60.40
2022-11-23T06:04:42.058Z,61.09
2022-11-23T06:05:42.055Z,56.73
2022-11-23T06:06:42.079Z,56.66
2022-11-23T06:07:42.099Z,57.99
2022-11-23T06:08:44.502Z,56.73
2022-11-23T06:09:43.034Z,58.41
2022-11-23T06:10:42.019Z,56.40
2022-11-23T06:11:42.055Z,55.53
2022-11-23T06:12:42.017Z,57.94
2022-11-23T06:13:41.996Z,58.55
2022-11-23T06:14:41.992Z,60.55
2022-11-23T06:15:41.988Z,58.30
2022-11-23T06:16:42.011Z,60.52
2022-11-23T06:17:41.966Z,53.47
2022-11-23T06:18:41.952Z,58.71
2022-11-23T06:19:41.949Z,57.21
2022-11-23T06:20:41.948Z,57.12
2022-11-23T06:21:46.126Z,57.52
2022-11-23T06:22:42.977Z,57.29
2022-11-23T06:23:41.931Z,60.25
2022-11-23T06:24:41.912Z,59.31
2022-11-23T06:28:15.179Z,60.04
2022-11-23T06:29:15.170Z,61.15
2022-11-23T06:30:15.163Z,60.58
2022-11-23T06:31:16.301Z,60.29
2022-11-23T06:32:16.326Z,58.67
2022-11-23T06:33:16.280Z,54.32
2022-11-23T06:34:16.288Z,55.94
2022-11-23T06:35:16.286Z,57.33
2022-11-23T06:36:16.279Z,57.13
2022-11-23T06:37:16.285Z,58.46
2022-11-23T06:38:16.237Z,57.27
2022-11-23T06:39:16.235Z,57.08
2022-11-23T06:40:16.229Z,58.14
2022-11-23T06:41:16.225Z,58.13
2022-11-23T06:42:37.667Z,59.06
2022-11-23T06:43:18.263Z,59.26
2022-11-23T06:44:16.196Z,57.42
2022-11-23T06:45:16.195Z,57.46
2022-11-23T06:46:16.186Z,57.49
2022-11-23T06:47:18.365Z,59.96
2022-11-23T06:48:17.215Z,57.09
2022-11-23T06:49:16.185Z,53.70
2022-11-23T06:50:16.157Z,54.91
2022-11-23T06:51:16.170Z,59.24
2022-11-23T06:52:16.153Z,54.30
2022-11-23T06:53:16.185Z,58.20
2022-11-23T06:54:16.126Z,59.92
2022-11-23T06:55:16.125Z,59.43
2022-11-23T06:56:16.130Z,56.20
2022-11-23T06:57:16.098Z,58.37
2022-11-23T06:58:16.139Z,60.45
2022-11-23T06:59:16.105Z,57.21
2022-11-23T07:00:16.077Z,58.39
2022-11-23T07:01:16.098Z,54.33
2022-11-23T07:02:16.057Z,58.76
2022-11-23T07:03:16.121Z,56.71
2022-11-23T07:04:16.042Z,64.25
2022-11-23T07:05:16.041Z,57.18
2022-11-23T07:06:16.022Z,57.52
2022-11-23T07:07:16.080Z,53.03
2022-11-23T07:08:16.041Z,58.68
2022-11-23T07:09:16.006Z,54.32
2022-11-23T07:10:15.995Z,61.53
2022-11-23T07:11:15.986Z,59.52
2022-11-23T07:12:15.991Z,55.60
2022-11-23T07:13:15.998Z,54.28
2022-11-23T07:14:15.966Z,58.90
2022-11-23T07:15:15.966Z,57.86
2022-11-23T07:16:15.954Z,56.69
2022-11-23T07:17:17.600Z,60.77
2022-11-23T07:18:16.968Z,57.62
2022-11-23T07:19:15.945Z,56.47
2022-11-23T07:20:15.923Z,56.39
2022-11-23T07:21:15.908Z,57.57
2022-11-23T07:22:15.914Z,57.42
2022-11-23T07:23:15.931Z,59.26
2022-11-23T07:24:15.893Z,58.54
2022-11-23T07:25:15.919Z,57.45
2022-11-23T07:26:15.877Z,54.78
2022-11-23T07:27:15.873Z,54.54
2022-11-23T07:28:15.882Z,57.73
2022-11-23T07:29:15.849Z,55.91
2022-11-23T07:30:15.846Z,56.87
2022-11-23T07:31:15.842Z,56.14
2022-11-23T07:32:15.842Z,53.70
2022-11-23T07:33:15.868Z,54.42
2022-11-23T07:34:15.835Z,56.83
2022-11-23T07:35:15.802Z,57.48
2022-11-23T07:36:15.790Z,51.30
2022-11-23T07:37:15.808Z,58.94
2022-11-23T07:38:15.824Z,54.31
2022-11-23T07:39:15.824Z,56.77
2022-11-23T07:40:15.780Z,53.82
2022-11-23T07:41:15.764Z,55.59
2022-11-23T07:42:34.576Z,59.61
2022-11-23T07:43:17.769Z,55.21
2022-11-23T07:44:15.734Z,59.71
2022-11-23T07:45:15.731Z,55.87
2022-11-23T07:46:15.724Z,56.90
2022-11-23T07:47:15.718Z,51.55
2022-11-23T07:48:15.738Z,58.89
2022-11-23T07:49:15.706Z,54.80
2022-11-23T07:50:15.689Z,57.12
2022-11-23T07:51:15.682Z,57.89
2022-11-23T07:52:15.683Z,58.34
2022-11-23T07:53:15.679Z,59.74
2022-11-23T07:54:16.542Z,55.69
2022-11-23T07:55:16.663Z,57.33
2022-11-23T07:56:15.653Z,54.90
2022-11-23T07:57:15.650Z,64.71
2022-11-23T07:58:15.656Z,60.01
2022-11-23T07:59:15.668Z,55.70
2022-11-23T08:00:15.634Z,58.43
2022-11-23T08:01:15.628Z,61.28
2022-11-23T08:02:15.693Z,56.45
2022-11-23T08:03:31.123Z,56.69
2022-11-23T08:04:17.617Z,58.81
2022-11-23T08:05:15.592Z,57.09
2022-11-23T08:06:15.583Z,57.12
2022-11-23T08:07:15.647Z,54.57
2022-11-23T08:08:15.573Z,60.20
2022-11-23T08:09:15.598Z,60.03
2022-11-23T08:10:15.573Z,57.21
2022-11-23T08:11:15.558Z,57.78
2022-11-23T08:12:15.545Z,59.10
2022-11-23T08:13:15.549Z,54.52
2022-11-23T08:14:15.552Z,54.47
2022-11-23T08:15:15.515Z,55.53
2022-11-23T08:16:15.512Z,57.52
2022-11-23T08:17:15.517Z,56.08
2022-11-23T08:18:15.489Z,52.66
2022-11-23T08:19:15.514Z,57.20
2022-11-23T08:20:15.494Z,54.74
2022-11-23T08:21:15.464Z,53.60
2022-11-23T08:22:15.954Z,58.35
2022-11-23T08:23:16.454Z,51.79
2022-11-23T08:24:15.468Z,54.27
2022-11-23T08:25:15.425Z,54.72
2022-11-23T08:26:16.435Z,54.69
2022-11-23T08:27:15.418Z,53.64
2022-11-23T08:28:15.401Z,55.76
2022-11-23T08:29:15.428Z,54.52
2022-11-23T08:30:15.387Z,55.49
2022-11-23T08:31:15.377Z,48.89
2022-11-23T08:32:15.373Z,59.95
2022-11-23T08:33:15.383Z,57.04
2022-11-23T08:34:15.385Z,61.23
2022-11-23T08:35:15.355Z,58.60
2022-11-23T08:36:15.344Z,56.91
2022-11-23T08:37:15.332Z,54.60
2022-11-23T08:38:15.320Z,53.36
2022-11-23T08:39:15.360Z,56.75
2022-11-23T08:40:16.020Z,57.82
2022-11-23T08:41:15.319Z,57.33
2022-11-23T08:42:15.297Z,54.39
2022-11-23T08:43:15.291Z,54.88
2022-11-23T08:44:15.307Z,54.00
2022-11-23T08:45:15.269Z,53.43
2022-11-23T08:46:15.264Z,54.99
2022-11-23T08:47:15.267Z,53.25
2022-11-23T08:48:15.258Z,56.12
2022-11-23T08:49:16.266Z,55.77
2022-11-23T08:50:15.244Z,56.43
2022-11-23T08:51:15.230Z,56.46
2022-11-23T08:52:15.251Z,58.14
2022-11-23T08:53:15.220Z,54.32
2022-11-23T08:54:15.227Z,55.57
2022-11-23T08:55:15.223Z,60.43
2022-11-23T08:56:15.196Z,56.07
2022-11-23T08:57:15.250Z,53.62
2022-11-23T08:58:15.202Z,53.90
2022-11-23T08:59:15.217Z,60.30
2022-11-23T09:00:15.169Z,57.09
2022-11-23T09:01:15.291Z,51.90
2022-11-23T09:02:15.168Z,54.91
2022-11-23T09:03:15.155Z,56.96
2022-11-23T09:04:20.346Z,55.95
2022-11-23T09:05:17.139Z,54.80
2022-11-23T09:06:15.113Z,56.27
2022-11-23T09:07:15.168Z,55.69
2022-11-23T09:08:15.133Z,61.32
2022-11-23T09:09:15.128Z,55.00
2022-11-23T09:10:18.359Z,53.28
2022-11-23T09:11:16.106Z,57.65
2022-11-23T09:12:15.113Z,57.46
2022-11-23T09:13:15.855Z,57.88
2022-11-23T09:14:15.099Z,53.49
2022-11-23T09:15:15.079Z,58.55
2022-11-23T09:16:15.070Z,56.38
2022-11-23T09:17:15.052Z,61.96
2022-11-23T09:18:15.026Z,56.61
2022-11-23T09:19:15.048Z,55.36
2022-11-23T09:20:15.025Z,60.73
2022-11-23T09:21:15.012Z,58.96
2022-11-23T09:22:15.030Z,56.53
2022-11-23T09:23:15.011Z,55.27
2022-11-23T09:24:15.075Z,59.55
2022-11-23T09:25:14.997Z,57.03
2022-11-23T09:26:14.980Z,55.22
2022-11-23T09:27:15.009Z,57.48
2022-11-23T09:28:14.985Z,52.45
2022-11-23T09:29:14.973Z,57.19
2022-11-23T09:30:14.968Z,52.20
2022-11-23T09:31:14.931Z,54.01
2022-11-23T09:32:14.926Z,55.70
2022-11-23T09:33:14.945Z,53.94
2022-11-23T09:34:14.962Z,54.00
2022-11-23T09:35:14.931Z,58.77
2022-11-23T09:36:14.906Z,55.00
2022-11-23T09:37:14.899Z,52.73
2022-11-23T09:38:15.890Z,55.64
2022-11-23T09:39:14.915Z,56.30
2022-11-23T09:40:14.918Z,55.83
2022-11-23T09:41:14.875Z,55.78
2022-11-23T09:42:14.861Z,59.69
2022-11-23T09:43:14.858Z,56.92
2022-11-23T09:44:14.869Z,56.05
2022-11-23T09:45:14.836Z,57.89
2022-11-23T09:46:14.827Z,55.40
2022-11-23T09:47:14.830Z,55.32
2022-11-23T09:48:14.819Z,55.49
2022-11-23T09:49:14.849Z,55.97
2022-11-23T09:50:14.785Z,56.58
2022-11-23T09:51:14.784Z,53.00
2022-11-23T09:52:14.796Z,55.91
2022-11-23T09:53:14.792Z,54.45
2022-11-23T09:54:14.795Z,51.75
2022-11-23T09:55:14.763Z,58.86
2022-11-23T09:56:14.755Z,57.43
2022-11-23T09:57:14.757Z,54.72
2022-11-23T09:58:14.756Z,57.54
2022-11-23T09:59:14.726Z,54.34
2022-11-23T10:00:14.736Z,51.43
2022-11-23T10:01:14.747Z,62.14
2022-11-23T10:02:14.719Z,56.88
2022-11-23T10:03:14.693Z,57.50
2022-11-23T10:04:14.699Z,58.36
2022-11-23T10:05:14.720Z,54.08
2022-11-23T10:06:14.663Z,56.63
2022-11-23T10:07:14.668Z,55.06
2022-11-23T10:08:14.645Z,57.61
2022-11-23T10:09:14.643Z,45.64
2022-11-23T10:10:14.684Z,57.55
2022-11-23T10:11:14.646Z,56.06
2022-11-23T10:12:14.617Z,55.70
2022-11-23T10:13:14.616Z,54.28
2022-11-23T10:14:14.619Z,54.75
2022-11-23T10:15:14.637Z,58.35
2022-11-23T10:16:14.636Z,56.40
2022-11-23T10:17:14.594Z,56.90
2022-11-23T10:18:14.578Z,53.89
2022-11-23T10:19:14.583Z,56.82
2022-11-23T10:20:14.611Z,55.78
2022-11-23T10:21:14.567Z,53.83
2022-11-23T10:22:14.561Z,52.38
2022-11-23T10:23:15.560Z,55.21
2022-11-23T10:24:14.553Z,57.45
2022-11-23T10:25:14.548Z,56.60
2022-11-23T10:26:14.527Z,56.65
2022-11-23T10:27:14.506Z,55.73
2022-11-23T10:28:14.487Z,53.52
2022-11-23T10:29:14.487Z,51.88
2022-11-23T10:30:14.522Z,56.90
2022-11-23T10:31:14.486Z,56.10
2022-11-23T10:32:14.455Z,58.75
2022-11-23T10:33:14.458Z,60.77
2022-11-23T10:34:14.444Z,58.65
2022-11-23T10:35:14.464Z,56.76
2022-11-23T10:36:14.452Z,54.70
2022-11-23T10:37:14.425Z,56.79
2022-11-23T10:38:18.763Z,56.66
2022-11-23T10:39:15.411Z,53.91
2022-11-23T10:40:14.404Z,54.95
2022-11-23T10:41:14.414Z,54.40
2022-11-23T10:42:14.387Z,52.53
2022-11-23T10:43:14.370Z,60.21
2022-11-23T10:44:14.367Z,55.53
2022-11-23T10:45:14.342Z,53.73
2022-11-23T10:46:14.364Z,59.95
2022-11-23T10:47:14.331Z,56.61
2022-11-23T10:48:14.337Z,55.29
2022-11-23T10:49:14.332Z,56.43
2022-11-23T10:50:14.313Z,53.97
2022-11-23T10:51:14.335Z,55.81
2022-11-23T10:52:14.303Z,56.81
2022-11-23T10:53:14.296Z,55.07
2022-11-23T10:54:14.290Z,57.96
2022-11-23T10:55:14.288Z,56.00
2022-11-23T10:56:14.297Z,56.68
2022-11-23T10:57:14.264Z,57.10
2022-11-23T10:58:14.256Z,57.37
2022-11-23T10:59:14.246Z,55.07
2022-11-23T11:00:14.247Z,54.69
2022-11-23T11:01:14.433Z,56.10
2022-11-23T11:02:14.208Z,55.41
2022-11-23T11:03:14.215Z,57.78
2022-11-23T11:04:14.211Z,55.65
2022-11-23T11:05:14.222Z,56.91
2022-11-23T11:06:14.221Z,54.10
2022-11-23T11:07:14.248Z,57.08
2022-11-23T11:08:14.184Z,57.28
2022-11-23T11:09:14.159Z,56.13
2022-11-23T11:10:14.161Z,54.97
2022-11-23T11:11:14.182Z,53.58
2022-11-23T11:12:14.144Z,60.08
2022-11-23T11:13:14.146Z,56.87
2022-11-23T11:14:14.135Z,56.38
2022-11-23T11:15:14.132Z,55.87
2022-11-23T11:16:14.160Z,55.54
2022-11-23T11:17:14.108Z,57.37
2022-11-23T11:18:14.106Z,56.09
2022-11-23T11:19:14.119Z,55.02
2022-11-23T11:20:14.147Z,54.65
2022-11-23T11:21:15.119Z,58.49
2022-11-23T11:22:14.073Z,58.54
2022-11-23T11:23:14.084Z,52.26
2022-11-23T11:24:14.070Z,51.23
2022-11-23T11:25:14.065Z,59.82
2022-11-23T11:26:14.078Z,56.87
2022-11-23T11:27:14.035Z,61.50
2022-11-23T11:28:14.018Z,60.66
2022-11-23T11:29:14.007Z,52.99
2022-11-23T11:30:14.034Z,59.02
2022-11-23T11:31:13.995Z,60.06
2022-11-23T11:32:14.018Z,55.40
2022-11-23T11:33:13.989Z,57.30
2022-11-23T11:34:13.971Z,53.03
2022-11-23T11:35:20.356Z,59.45
2022-11-23T11:36:15.956Z,55.12
2022-11-23T11:37:13.972Z,55.33
2022-11-23T11:38:13.942Z,55.98
2022-11-23T11:39:20.449Z,58.13
2022-11-23T11:40:15.927Z,54.89
2022-11-23T11:41:13.927Z,56.52
2022-11-23T11:42:13.946Z,55.03
2022-11-23T11:43:13.903Z,56.47
2022-11-23T11:44:13.901Z,56.55
2022-11-23T11:45:13.884Z,62.40
2022-11-23T11:46:28.701Z,57.52
2022-11-23T11:47:15.899Z,55.86
2022-11-23T11:48:13.866Z,56.47
2022-11-23T11:49:13.857Z,59.21
2022-11-23T11:50:13.865Z,56.53
2022-11-23T11:51:13.843Z,56.25
2022-11-23T11:52:13.861Z,56.00
2022-11-23T11:53:13.830Z,58.60
2022-11-23T11:54:13.889Z,57.68
2022-11-23T11:55:13.838Z,55.94
2022-11-23T11:56:13.852Z,54.17
2022-11-23T11:57:13.861Z,57.01
2022-11-23T11:58:13.817Z,52.60
2022-11-23T11:59:13.818Z,54.88
2022-11-23T12:00:13.792Z,54.76
2022-11-23T12:01:13.772Z,59.79
2022-11-23T12:02:13.797Z,62.16
2022-11-23T12:03:13.795Z,57.10
2022-11-23T12:04:13.751Z,56.92
2022-11-23T12:05:13.738Z,55.75
2022-11-23T12:06:13.726Z,59.45
2022-11-23T12:07:13.793Z,58.91
2022-11-23T12:08:13.723Z,54.73
2022-11-23T12:09:13.718Z,53.77
2022-11-23T12:10:13.704Z,54.76
2022-11-23T12:11:13.698Z,57.76
2022-11-23T12:12:13.703Z,55.20
2022-11-23T12:13:14.684Z,56.79
2022-11-23T12:14:13.673Z,54.92
2022-11-23T12:15:33.609Z,57.65
2022-11-23T12:16:15.665Z,52.86
2022-11-23T12:18:15.657Z,57.72
2022-11-23T12:19:13.648Z,52.94
2022-11-23T12:20:13.649Z,56.31
2022-11-23T12:21:13.717Z,59.56
2022-11-23T12:22:13.732Z,57.35
2022-11-23T12:23:13.644Z,56.57
2022-11-23T12:24:13.616Z,57.49
2022-11-23T12:25:13.612Z,52.08
2022-11-23T12:26:46.415Z,58.42
2022-11-23T12:27:13.589Z,54.53
2022-11-23T12:28:13.561Z,56.82
2022-11-23T12:29:13.554Z,52.50
2022-11-23T12:30:13.554Z,55.97
2022-11-23T12:31:13.544Z,57.51
2022-11-23T12:32:13.560Z,57.44
2022-11-23T12:33:13.530Z,57.11
2022-11-23T12:34:14.492Z,58.90
2022-11-23T12:35:13.506Z,55.28
2022-11-23T12:36:13.841Z,56.46
2022-11-23T12:37:13.537Z,56.34
2022-11-23T12:38:13.508Z,57.32
2022-11-23T12:39:13.504Z,56.42
2022-11-23T12:40:13.471Z,56.64
2022-11-23T12:41:13.464Z,54.49
2022-11-23T12:42:13.456Z,59.54
2022-11-23T12:43:13.477Z,57.06
2022-11-23T12:44:13.447Z,56.12
2022-11-23T12:45:13.434Z,54.98
2022-11-23T12:46:13.429Z,58.42
2022-11-23T12:47:13.420Z,56.45
2022-11-23T12:48:13.432Z,56.53
2022-11-23T12:49:13.398Z,57.79
2022-11-23T12:50:13.414Z,56.07
2022-11-23T12:51:13.384Z,54.47
2022-11-23T12:52:13.367Z,55.00
2022-11-23T12:53:14.485Z,54.79
2022-11-23T12:54:13.387Z,55.22
2022-11-23T12:55:19.235Z,54.89
2022-11-23T12:56:15.352Z,53.91